Time;durP1;ratioP1;P1;durP2;ratioP2;P2;SDS_P1;SDS_P2;PMS_P1;PMS_P2;Temp;Humidity;BMP_temperature;BMP_pressure;BME280_temperature;BME280_humidity;BME280_pressure;Samples;Min_cycle;Max_cycle;Signal;HPM_P1;HPM_P2
2023/12/30 00:01:53;;;;;;;;;;;6.00;99.90;;;;;;4925410;28;19932;-61
2023/12/30 00:04:18;;;;;;;;;;;6.00;99.90;;;;;;4933794;28;19972;-61
2023/12/30 00:06:44;;;;;;;;;;;5.90;99.90;;;;;;4900246;28;19930;-60
2023/12/30 00:09:10;;;;;;;;;;;6.00;99.90;;;;;;4934290;28;20016;-61
2023/12/30 00:11:35;;;;;;;;;;;6.00;99.90;;;;;;4938572;28;19922;-59
2023/12/30 00:14:01;;;;;;;;;;;5.90;99.90;;;;;;4937590;28;19986;-61
2023/12/30 00:16:27;;;;;;;;;;;5.90;99.90;;;;;;4923086;28;19937;-61
2023/12/30 00:18:53;;;;;;;;;;;5.90;99.90;;;;;;4919296;28;20459;-61
2023/12/30 00:21:19;;;;;;;;;;;5.90;99.90;;;;;;4938479;28;19926;-61
2023/12/30 00:23:44;;;;;;;;;;;5.90;99.90;;;;;;4919071;28;20008;-61
2023/12/30 00:26:23;;;;;;;;;;;5.80;99.90;;;;;;4939779;28;19927;-61
2023/12/30 00:28:49;;;;;;;;;;;5.90;99.90;;;;;;4937916;28;19956;-61
2023/12/30 00:31:25;;;;;;;;;;;5.80;99.90;;;;;;4928638;28;21161;-61
2023/12/30 00:33:55;;;;;;;;;;;5.80;99.90;;;;;;4923780;28;19936;-60
2023/12/30 00:36:21;;;;;;;;;;;5.80;99.90;;;;;;4941542;28;20325;-61
2023/12/30 00:38:46;;;;;;;;;;;5.80;99.90;;;;;;4938068;28;19922;-60
2023/12/30 00:41:13;;;;;;;;;;;5.80;99.90;;;;;;4920140;28;20405;-61
2023/12/30 00:43:40;;;;;;;;;;;5.80;99.90;;;;;;4923117;28;20395;-61
2023/12/30 00:46:05;;;;;;;;;;;5.80;99.90;;;;;;4918696;28;19922;-60
2023/12/30 00:48:31;;;;;;;;;;;5.80;99.90;;;;;;4935237;28;20188;-61
2023/12/30 00:50:56;;;;;;;;;;;5.80;99.90;;;;;;4918189;28;21337;-61
2023/12/30 00:53:22;;;;;;;;;;;5.80;99.90;;;;;;4940173;28;19959;-61
2023/12/30 00:55:48;;;;;;;;;;;5.80;99.90;;;;;;4919922;28;19933;-61
2023/12/30 00:58:13;;;;;;;;;;;5.80;99.90;;;;;;4906311;28;20013;-61
2023/12/30 01:00:39;;;;;;;;;;;5.80;99.90;;;;;;4931100;28;20012;-61
2023/12/30 01:03:04;;;;;;;;;;;5.80;99.90;;;;;;4908606;28;19926;-61
2023/12/30 01:05:30;;;;;;;;;;;5.80;99.90;;;;;;4916397;28;20563;-61
2023/12/30 01:07:56;;;;;;;;;;;5.80;99.90;;;;;;4940653;28;19926;-61
2023/12/30 01:10:21;;;;;;;;;;;5.80;99.90;;;;;;4938929;28;19937;-61
2023/12/30 01:12:47;;;;;;;;;;;5.80;99.90;;;;;;4936395;28;19985;-61
2023/12/30 01:15:13;;;;;;;;;;;5.80;99.90;;;;;;4941260;28;19933;-61
2023/12/30 01:17:38;;;;;;;;;;;5.80;99.90;;;;;;4941357;28;20016;-59
2023/12/30 01:20:04;;;;;;;;;;;5.80;99.90;;;;;;4924443;28;19926;-60
2023/12/30 01:22:30;;;;;;;;;;;5.70;99.90;;;;;;4941328;28;20546;-60
2023/12/30 01:24:55;;;;;;;;;;;5.70;99.90;;;;;;4937727;28;20012;-59
2023/12/30 01:27:21;;;;;;;;;;;5.80;99.90;;;;;;4927358;28;21702;-61
2023/12/30 01:29:46;;;;;;;;;;;5.70;99.90;;;;;;4941996;28;20369;-60
2023/12/30 01:32:12;;;;;;;;;;;5.70;99.90;;;;;;4925780;28;20298;-61
2023/12/30 01:34:37;;;;;;;;;;;5.70;99.90;;;;;;4942492;28;20082;-61
2023/12/30 01:37:03;;;;;;;;;;;5.70;99.90;;;;;;4920810;28;20303;-61
2023/12/30 01:39:29;;;;;;;;;;;5.70;99.90;;;;;;4925444;28;19926;-61
2023/12/30 01:41:54;;;;;;;;;;;5.70;99.90;;;;;;4939737;28;19918;-61
2023/12/30 01:44:20;;;;;;;;;;;5.70;99.90;;;;;;4906059;28;20398;-61
2023/12/30 01:46:46;;;;;;;;;;;5.70;99.90;;;;;;4916133;28;19952;-61
2023/12/30 01:49:12;;;;;;;;;;;5.80;99.90;;;;;;4933550;28;19925;-65
2023/12/30 01:51:37;;;;;;;;;;;5.70;99.90;;;;;;4921029;28;19925;-60
2023/12/30 01:54:04;;;;;;;;;;;5.70;99.90;;;;;;4924897;28;20610;-61
2023/12/30 01:56:31;;;;;;;;;;;5.70;99.90;;;;;;4917598;28;19925;-61
2023/12/30 01:58:57;;;;;;;;;;;5.70;99.90;;;;;;4933783;28;19996;-61
2023/12/30 02:01:25;;;;;;;;;;;5.80;99.90;;;;;;4915081;28;19926;-61
2023/12/30 02:03:52;;;;;;;;;;;5.80;99.90;;;;;;4915789;28;19929;-60
2023/12/30 02:06:17;;;;;;;;;;;5.80;99.90;;;;;;4922233;28;19929;-61
2023/12/30 02:08:45;;;;;;;;;;;5.90;99.90;;;;;;4926803;28;20046;-61
2023/12/30 02:11:11;;;;;;;;;;;5.90;99.90;;;;;;4915870;28;19926;-61
2023/12/30 02:13:40;;;;;;;;;;;5.90;99.90;;;;;;4921548;28;19926;-60
2023/12/30 02:16:06;;;;;;;;;;;6.00;99.90;;;;;;4931561;28;19960;-61
2023/12/30 02:18:31;;;;;;;;;;;6.00;99.90;;;;;;4938678;28;19925;-61
2023/12/30 02:20:57;;;;;;;;;;;6.00;99.90;;;;;;4939777;28;19926;-61
2023/12/30 02:23:22;;;;;;;;;;;6.00;99.90;;;;;;4937574;28;20484;-61
2023/12/30 02:25:48;;;;;;;;;;;6.00;99.90;;;;;;4938540;28;19922;-60
2023/12/30 02:28:14;;;;;;;;;;;6.10;99.90;;;;;;4936606;28;20620;-60
2023/12/30 02:30:40;;;;;;;;;;;6.00;99.90;;;;;;4938238;28;20381;-61
2023/12/30 02:33:06;;;;;;;;;;;6.10;99.90;;;;;;4920234;28;19926;-61
2023/12/30 02:35:31;;;;;;;;;;;6.10;99.90;;;;;;4936301;28;20463;-61
2023/12/30 02:37:57;;;;;;;;;;;6.10;99.90;;;;;;4926919;28;21684;-60
2023/12/30 02:40:22;;;;;;;;;;;6.10;99.90;;;;;;4907731;28;20466;-61
2023/12/30 02:42:48;;;;;;;;;;;6.10;99.90;;;;;;4920483;28;19992;-60
2023/12/30 02:45:14;;;;;;;;;;;6.20;99.90;;;;;;4919531;28;20014;-60
2023/12/30 02:47:40;;;;;;;;;;;6.20;99.90;;;;;;4939957;28;20070;-61
2023/12/30 02:50:06;;;;;;;;;;;6.20;99.90;;;;;;4935646;28;19936;-60
2023/12/30 02:52:31;;;;;;;;;;;6.20;99.90;;;;;;4936640;28;19922;-60
2023/12/30 02:54:57;;;;;;;;;;;6.20;99.90;;;;;;4938250;28;20311;-61
2023/12/30 02:57:24;;;;;;;;;;;6.30;99.90;;;;;;4935635;28;20457;-60
2023/12/30 02:59:50;;;;;;;;;;;6.30;99.90;;;;;;4939998;28;19932;-60
2023/12/30 03:02:16;;;;;;;;;;;6.30;99.90;;;;;;4921977;28;19930;-61
2023/12/30 03:04:41;;;;;;;;;;;6.30;99.90;;;;;;4939403;28;19926;-61
2023/12/30 03:07:07;;;;;;;;;;;6.40;99.90;;;;;;4927153;28;20385;-61
2023/12/30 03:09:34;;;;;;;;;;;6.30;99.90;;;;;;4943612;28;19921;-61
2023/12/30 03:11:59;;;;;;;;;;;6.40;99.90;;;;;;4924166;28;19933;-60
2023/12/30 03:14:25;;;;;;;;;;;6.40;99.90;;;;;;4921991;28;19926;-60
2023/12/30 03:16:50;;;;;;;;;;;6.40;99.90;;;;;;4940141;28;19930;-60
2023/12/30 03:19:16;;;;;;;;;;;6.40;99.90;;;;;;4922890;28;19922;-61
2023/12/30 03:21:42;;;;;;;;;;;6.40;99.90;;;;;;4935044;28;19926;-61
2023/12/30 03:24:07;;;;;;;;;;;6.50;99.90;;;;;;4924698;28;20411;-59
2023/12/30 03:26:33;;;;;;;;;;;6.40;99.90;;;;;;4941936;28;19926;-61
2023/12/30 03:28:58;;;;;;;;;;;6.50;99.90;;;;;;4926377;28;19965;-61
2023/12/30 03:31:26;;;;;;;;;;;6.50;99.90;;;;;;4935453;28;20542;-60
2023/12/30 03:33:51;;;;;;;;;;;6.50;99.90;;;;;;4941695;28;19926;-61
2023/12/30 03:36:17;;;;;;;;;;;6.50;99.90;;;;;;4939647;28;20013;-61
2023/12/30 03:38:43;;;;;;;;;;;6.50;99.90;;;;;;4916768;28;20733;-60
2023/12/30 03:41:08;;;;;;;;;;;6.50;99.90;;;;;;4938175;28;19969;-61
2023/12/30 03:43:34;;;;;;;;;;;6.60;99.90;;;;;;4936320;28;19933;-61
2023/12/30 03:45:59;;;;;;;;;;;6.60;99.90;;;;;;4903595;28;19926;-61
2023/12/30 03:48:25;;;;;;;;;;;6.50;99.90;;;;;;4911536;28;19926;-60
2023/12/30 03:50:50;;;;;;;;;;;6.60;99.90;;;;;;4936589;28;19918;-60
2023/12/30 03:53:16;;;;;;;;;;;6.50;99.90;;;;;;4938105;28;20365;-60
2023/12/30 03:55:42;;;;;;;;;;;6.50;99.90;;;;;;4922763;28;19930;-61
2023/12/30 03:58:07;;;;;;;;;;;6.50;99.90;;;;;;4943388;28;20128;-61
2023/12/30 04:00:33;;;;;;;;;;;6.50;99.90;;;;;;4936328;28;20368;-61
2023/12/30 04:02:58;;;;;;;;;;;6.50;99.90;;;;;;4924211;28;19921;-61
2023/12/30 04:05:24;;;;;;;;;;;6.50;99.90;;;;;;4930756;28;20259;-61
2023/12/30 04:07:50;;;;;;;;;;;6.50;99.90;;;;;;4897732;28;19926;-61
2023/12/30 04:10:17;;;;;;;;;;;6.50;99.90;;;;;;4917463;28;19978;-60
2023/12/30 04:12:43;;;;;;;;;;;6.50;99.90;;;;;;4915572;28;19934;-61
2023/12/30 04:15:09;;;;;;;;;;;6.60;99.90;;;;;;4911799;28;19927;-61
2023/12/30 04:17:34;;;;;;;;;;;6.50;99.90;;;;;;4900307;28;19978;-59
2023/12/30 04:20:00;;;;;;;;;;;6.50;99.90;;;;;;4916946;28;20493;-61
2023/12/30 04:22:27;;;;;;;;;;;6.50;99.90;;;;;;4915264;28;20060;-60
2023/12/30 04:24:53;;;;;;;;;;;6.50;99.90;;;;;;4898237;28;19934;-61
2023/12/30 04:27:18;;;;;;;;;;;6.40;99.90;;;;;;4918295;28;20808;-61
2023/12/30 04:29:44;;;;;;;;;;;6.40;99.90;;;;;;4908581;29;20462;-61
2023/12/30 04:32:09;;;;;;;;;;;6.40;99.90;;;;;;4902344;28;19926;-61
2023/12/30 04:34:35;;;;;;;;;;;6.40;99.90;;;;;;4909372;28;19930;-61
2023/12/30 04:37:01;;;;;;;;;;;6.40;99.90;;;;;;4904584;28;20390;-61
2023/12/30 04:39:27;;;;;;;;;;;6.40;99.90;;;;;;4902056;28;19928;-59
2023/12/30 04:41:52;;;;;;;;;;;6.40;99.90;;;;;;4919088;28;19926;-61
2023/12/30 04:44:18;;;;;;;;;;;6.40;99.90;;;;;;4908581;29;19952;-60
2023/12/30 04:46:44;;;;;;;;;;;6.50;99.90;;;;;;4918684;28;19973;-59
2023/12/30 04:49:11;;;;;;;;;;;6.50;99.90;;;;;;4904587;28;19933;-60
2023/12/30 04:51:37;;;;;;;;;;;6.50;99.90;;;;;;4897250;28;19955;-61
2023/12/30 04:54:03;;;;;;;;;;;6.50;99.90;;;;;;4905769;28;19933;-61
2023/12/30 04:56:28;;;;;;;;;;;6.50;99.90;;;;;;4907665;28;20417;-61
2023/12/30 04:58:54;;;;;;;;;;;6.50;99.90;;;;;;4909629;28;19933;-61
2023/12/30 05:01:19;;;;;;;;;;;6.50;99.90;;;;;;4904055;28;20401;-61
2023/12/30 05:03:45;;;;;;;;;;;6.60;99.90;;;;;;4913674;28;21947;-61
2023/12/30 05:06:29;;;;;;;;;;;6.60;99.90;;;;;;4897465;28;19930;-60
2023/12/30 05:08:55;;;;;;;;;;;6.60;99.90;;;;;;4920727;28;19926;-61
2023/12/30 05:11:23;;;;;;;;;;;6.60;99.90;;;;;;4918026;28;19929;-60
2023/12/30 05:13:49;;;;;;;;;;;6.60;99.90;;;;;;4939348;28;20000;-60
2023/12/30 05:16:15;;;;;;;;;;;6.60;99.90;;;;;;4938325;28;19976;-61
2023/12/30 05:18:40;;;;;;;;;;;6.50;99.90;;;;;;4940416;28;20393;-60
2023/12/30 05:21:14;;;;;;;;;;;6.60;99.90;;;;;;4936458;28;19925;-61
2023/12/30 05:23:40;;;;;;;;;;;6.60;99.90;;;;;;4925697;28;19953;-61
2023/12/30 05:26:06;;;;;;;;;;;6.60;99.90;;;;;;4941851;28;19933;-59
2023/12/30 05:28:31;;;;;;;;;;;6.60;99.90;;;;;;4939261;28;20348;-60
2023/12/30 05:30:57;;;;;;;;;;;6.60;99.90;;;;;;4939955;28;19927;-61
2023/12/30 05:33:23;;;;;;;;;;;6.60;99.90;;;;;;4942146;28;19926;-61
2023/12/30 05:35:49;;;;;;;;;;;6.60;99.90;;;;;;4920116;28;19966;-61
2023/12/30 05:38:15;;;;;;;;;;;6.60;99.90;;;;;;4937022;28;20188;-61
2023/12/30 05:40:40;;;;;;;;;;;6.60;99.90;;;;;;4909740;28;19929;-61
2023/12/30 05:43:06;;;;;;;;;;;6.60;99.90;;;;;;4918853;28;20416;-61
2023/12/30 05:45:32;;;;;;;;;;;6.60;99.90;;;;;;4937656;28;20172;-61
2023/12/30 05:47:57;;;;;;;;;;;6.60;99.90;;;;;;4921938;28;20037;-60
2023/12/30 05:50:23;;;;;;;;;;;6.60;99.90;;;;;;4933867;28;19925;-59
2023/12/30 05:52:49;;;;;;;;;;;6.60;99.90;;;;;;4936463;28;20234;-61
2023/12/30 05:55:14;;;;;;;;;;;6.60;99.90;;;;;;4924252;28;19922;-62
2023/12/30 05:57:40;;;;;;;;;;;6.60;99.90;;;;;;4934107;28;19926;-59
2023/12/30 06:00:07;;;;;;;;;;;6.60;99.90;;;;;;4916992;28;20412;-61
2023/12/30 06:02:32;;;;;;;;;;;6.50;99.90;;;;;;4927459;28;19937;-60
2023/12/30 06:04:58;;;;;;;;;;;6.50;99.90;;;;;;4922900;28;19922;-61
2023/12/30 06:07:24;;;;;;;;;;;6.50;99.90;;;;;;4902809;28;20037;-61
2023/12/30 06:09:49;;;;;;;;;;;6.50;99.90;;;;;;4924851;28;19921;-61
2023/12/30 06:12:15;;;;;;;;;;;6.50;99.90;;;;;;4941623;28;19926;-61
2023/12/30 06:14:40;;;;;;;;;;;6.50;99.90;;;;;;4909205;28;19957;-61
2023/12/30 06:17:06;;;;;;;;;;;6.60;99.90;;;;;;4918351;28;19970;-61
2023/12/30 06:19:35;;;;;;;;;;;6.60;99.90;;;;;;4923409;28;19925;-60
2023/12/30 06:22:00;;;;;;;;;;;6.60;99.90;;;;;;4937460;28;19930;-61
2023/12/30 06:24:26;;;;;;;;;;;6.60;99.90;;;;;;4934233;28;19985;-60
2023/12/30 06:26:52;;;;;;;;;;;6.50;99.90;;;;;;4935406;28;19925;-61
2023/12/30 06:29:19;;;;;;;;;;;6.40;99.90;;;;;;4938461;28;19997;-59
2023/12/30 06:31:44;;;;;;;;;;;6.50;99.90;;;;;;4936692;28;20391;-60
2023/12/30 06:34:10;;;;;;;;;;;6.50;99.90;;;;;;4937634;28;19926;-61
2023/12/30 06:36:36;;;;;;;;;;;6.50;99.90;;;;;;4935232;28;19925;-60
2023/12/30 06:39:02;;;;;;;;;;;6.50;99.90;;;;;;4932552;28;19937;-60
2023/12/30 06:41:27;;;;;;;;;;;6.50;99.90;;;;;;4920872;28;20364;-61
2023/12/30 06:43:53;;;;;;;;;;;6.50;99.90;;;;;;4935302;28;19929;-60
2023/12/30 06:46:19;;;;;;;;;;;6.50;99.90;;;;;;4923112;28;20941;-60
2023/12/30 06:48:45;;;;;;;;;;;6.50;99.90;;;;;;4922689;28;20546;-61
2023/12/30 06:51:11;;;;;;;;;;;6.50;99.90;;;;;;4909797;28;19926;-61
2023/12/30 06:53:37;;;;;;;;;;;6.50;99.90;;;;;;4923741;28;19933;-61
2023/12/30 06:56:03;;;;;;;;;;;6.50;99.90;;;;;;4921914;28;19937;-60
2023/12/30 06:58:29;;;;;;;;;;;6.50;99.90;;;;;;4920200;28;20377;-60
2023/12/30 07:00:55;;;;;;;;;;;6.50;99.90;;;;;;4944934;28;19964;-61
2023/12/30 07:03:20;;;;;;;;;;;6.50;99.90;;;;;;4932973;28;19925;-60
2023/12/30 07:05:46;;;;;;;;;;;6.50;99.90;;;;;;4925088;28;19929;-61
2023/12/30 07:08:12;;;;;;;;;;;6.50;99.90;;;;;;4902792;28;19969;-60
2023/12/30 07:10:38;;;;;;;;;;;6.40;99.90;;;;;;4912594;28;19922;-61
2023/12/30 07:13:04;;;;;;;;;;;6.40;99.90;;;;;;4926664;28;20389;-60
2023/12/30 07:15:30;;;;;;;;;;;6.40;99.90;;;;;;4934287;28;20028;-61
2023/12/30 07:17:56;;;;;;;;;;;6.40;99.90;;;;;;4947019;28;19928;-61
2023/12/30 07:20:21;;;;;;;;;;;6.40;99.90;;;;;;4944992;28;19918;-61
2023/12/30 07:22:47;;;;;;;;;;;6.40;99.90;;;;;;4942540;28;20460;-60
2023/12/30 07:25:13;;;;;;;;;;;6.40;99.90;;;;;;4941561;28;20025;-60
2023/12/30 07:27:38;;;;;;;;;;;6.40;99.90;;;;;;4920748;28;19926;-61
2023/12/30 07:30:05;;;;;;;;;;;6.40;99.90;;;;;;4906437;28;20045;-60
2023/12/30 07:32:30;;;;;;;;;;;6.40;99.90;;;;;;4940957;28;19922;-61
2023/12/30 07:34:56;;;;;;;;;;;6.40;99.90;;;;;;4931376;28;19967;-61
2023/12/30 07:37:21;;;;;;;;;;;6.40;99.90;;;;;;4939301;28;20484;-60
2023/12/30 07:39:49;;;;;;;;;;;6.40;99.90;;;;;;4936234;28;19926;-61
2023/12/30 07:42:16;;;;;;;;;;;6.40;99.90;;;;;;4920386;28;19944;-61
2023/12/30 07:44:41;;;;;;;;;;;6.40;99.90;;;;;;4904398;28;19929;-61
2023/12/30 07:47:07;;;;;;;;;;;6.40;99.90;;;;;;4940356;28;22193;-60
2023/12/30 07:49:33;;;;;;;;;;;6.40;99.90;;;;;;4945224;28;19973;-61
2023/12/30 07:52:00;;;;;;;;;;;6.40;99.90;;;;;;4945506;28;19922;-61
2023/12/30 07:54:26;;;;;;;;;;;6.40;99.90;;;;;;4946929;28;19937;-61
2023/12/30 07:56:52;;;;;;;;;;;6.30;99.90;;;;;;4944425;28;19930;-61
2023/12/30 07:59:17;;;;;;;;;;;6.30;99.90;;;;;;4941748;28;19926;-61
2023/12/30 08:01:46;;;;;;;;;;;6.30;99.90;;;;;;4917023;28;20574;-61
2023/12/30 08:04:13;;;;;;;;;;;6.40;99.90;;;;;;4938577;28;20302;-61
2023/12/30 08:06:39;;;;;;;;;;;6.40;99.90;;;;;;4940750;28;19921;-61
2023/12/30 08:09:05;;;;;;;;;;;6.40;99.90;;;;;;4921202;28;19930;-59
2023/12/30 08:11:31;;;;;;;;;;;6.30;99.90;;;;;;4943100;28;19926;-60
2023/12/30 08:13:56;;;;;;;;;;;6.30;99.90;;;;;;4941252;28;20013;-61
2023/12/30 08:16:22;;;;;;;;;;;6.30;99.90;;;;;;4898771;28;19934;-61
2023/12/30 08:18:48;;;;;;;;;;;6.30;99.90;;;;;;4928631;28;19925;-60
2023/12/30 08:21:14;;;;;;;;;;;6.30;99.90;;;;;;4939181;28;19926;-60
2023/12/30 08:23:40;;;;;;;;;;;6.30;99.90;;;;;;4923521;28;19922;-61
2023/12/30 08:26:05;;;;;;;;;;;6.30;99.90;;;;;;4945575;28;19922;-60
2023/12/30 08:28:31;;;;;;;;;;;6.30;99.90;;;;;;4944921;28;19925;-61
2023/12/30 08:30:59;;;;;;;;;;;6.30;99.90;;;;;;4930177;28;20294;-61
2023/12/30 08:33:25;;;;;;;;;;;6.30;99.90;;;;;;4947772;28;19926;-60
2023/12/30 08:35:50;;;;;;;;;;;6.30;99.90;;;;;;4943594;28;19930;-61
2023/12/30 08:38:16;;;;;;;;;;;6.40;99.90;;;;;;4943156;28;19926;-61
2023/12/30 08:40:42;;;;;;;;;;;6.40;99.90;;;;;;4942933;28;20488;-61
2023/12/30 08:43:08;;;;;;;;;;;6.40;99.90;;;;;;4934868;28;19922;-60
2023/12/30 08:45:34;;;;;;;;;;;6.40;99.90;;;;;;4931367;28;20173;-59
2023/12/30 08:48:00;;;;;;;;;;;6.40;99.90;;;;;;4924377;28;19926;-61
2023/12/30 08:50:26;;;;;;;;;;;6.40;99.90;;;;;;4908035;28;19972;-60
2023/12/30 08:52:51;;;;;;;;;;;6.40;99.90;;;;;;4926063;28;19926;-60
2023/12/30 08:55:17;;;;;;;;;;;6.30;99.90;;;;;;4928313;28;19984;-61
2023/12/30 08:57:43;;;;;;;;;;;6.40;99.90;;;;;;4939900;28;19932;-61
2023/12/30 09:00:09;;;;;;;;;;;6.40;99.90;;;;;;4925362;28;20425;-61
2023/12/30 09:02:35;;;;;;;;;;;6.40;99.90;;;;;;4922819;28;19977;-60
2023/12/30 09:05:01;;;;;;;;;;;6.40;99.90;;;;;;4943474;28;20034;-59
2023/12/30 09:07:26;;;;;;;;;;;6.60;99.90;;;;;;4946622;28;19934;-60
2023/12/30 09:09:52;;;;;;;;;;;6.40;99.90;;;;;;4919318;28;19930;-60
2023/12/30 09:12:17;;;;;;;;;;;6.40;99.90;;;;;;4922048;28;19933;-61
2023/12/30 09:14:43;;;;;;;;;;;6.40;99.90;;;;;;4920592;28;19973;-61
2023/12/30 09:17:08;;;;;;;;;;;6.40;99.90;;;;;;4946082;28;20317;-61
2023/12/30 09:19:34;;;;;;;;;;;6.40;99.90;;;;;;4931678;28;20039;-61
2023/12/30 09:22:01;;;;;;;;;;;6.40;99.90;;;;;;4931785;28;20365;-60
2023/12/30 09:24:26;;;;;;;;;;;6.40;99.90;;;;;;4927472;28;20005;-61
2023/12/30 09:26:52;;;;;;;;;;;6.40;99.90;;;;;;4921145;28;19926;-60
2023/12/30 09:29:18;;;;;;;;;;;6.40;99.90;;;;;;4938566;28;19937;-60
2023/12/30 09:31:43;;;;;;;;;;;6.40;99.90;;;;;;4937897;28;19926;-59
2023/12/30 09:34:09;;;;;;;;;;;6.40;99.90;;;;;;4934044;28;19926;-61
2023/12/30 09:36:34;;;;;;;;;;;6.50;99.90;;;;;;4928177;28;20020;-58
2023/12/30 09:39:00;;;;;;;;;;;6.50;99.90;;;;;;4938484;28;19970;-59
2023/12/30 09:41:26;;;;;;;;;;;6.50;99.90;;;;;;4937319;28;19928;-60
2023/12/30 09:43:53;;;;;;;;;;;6.60;99.90;;;;;;4922590;28;19944;-61
2023/12/30 09:46:20;;;;;;;;;;;6.60;99.90;;;;;;4941661;28;19925;-61
2023/12/30 09:48:46;;;;;;;;;;;6.70;99.90;;;;;;4921853;28;19960;-61
2023/12/30 09:51:11;;;;;;;;;;;6.70;99.90;;;;;;4941371;28;19926;-61
2023/12/30 09:53:38;;;;;;;;;;;6.70;99.90;;;;;;4943300;28;19942;-60
2023/12/30 09:56:03;;;;;;;;;;;6.70;99.90;;;;;;4929744;28;20320;-61
2023/12/30 09:58:30;;;;;;;;;;;6.80;99.90;;;;;;4923709;28;19936;-61
2023/12/30 10:00:56;;;;;;;;;;;6.90;99.90;;;;;;4939923;28;19926;-60
2023/12/30 10:03:23;;;;;;;;;;;6.90;99.90;;;;;;4941728;28;19926;-61
2023/12/30 10:05:50;;;;;;;;;;;6.90;99.90;;;;;;4940346;28;19926;-61
2023/12/30 10:08:15;;;;;;;;;;;7.00;99.90;;;;;;4924998;28;19922;-61
2023/12/30 10:10:49;;;;;;;;;;;7.00;99.90;;;;;;4947174;28;20395;-60
2023/12/30 10:13:16;;;;;;;;;;;7.10;99.90;;;;;;4946332;28;19923;-60
2023/12/30 10:15:42;;;;;;;;;;;7.10;99.90;;;;;;4927052;28;20301;-61
2023/12/30 10:18:08;;;;;;;;;;;7.10;99.90;;;;;;4942047;28;20184;-61
2023/12/30 10:20:36;;;;;;;;;;;7.20;99.90;;;;;;4920901;28;19933;-60
2023/12/30 10:23:01;;;;;;;;;;;7.30;99.90;;;;;;4916459;28;19922;-60
2023/12/30 10:25:27;;;;;;;;;;;7.30;99.90;;;;;;4943767;28;19980;-60
2023/12/30 10:27:53;;;;;;;;;;;7.30;99.90;;;;;;4945924;28;19941;-60
2023/12/30 10:30:19;;;;;;;;;;;7.40;99.90;;;;;;4930081;28;19930;-60
2023/12/30 10:32:46;;;;;;;;;;;7.50;99.90;;;;;;4944490;28;19927;-61
2023/12/30 10:35:15;;;;;;;;;;;7.50;99.90;;;;;;4940145;28;19925;-61
2023/12/30 10:37:44;;;;;;;;;;;7.50;99.90;;;;;;4943086;28;19926;-61
2023/12/30 10:40:09;;;;;;;;;;;7.60;99.90;;;;;;4943486;28;19925;-61
2023/12/30 10:42:36;;;;;;;;;;;7.60;99.90;;;;;;4938442;28;21054;-61
2023/12/30 10:45:01;;;;;;;;;;;7.60;99.90;;;;;;4941776;28;20014;-61
2023/12/30 10:47:27;;;;;;;;;;;7.70;99.90;;;;;;4927355;28;19930;-59
2023/12/30 10:49:58;;;;;;;;;;;7.70;99.90;;;;;;4922184;28;19929;-61
2023/12/30 10:52:26;;;;;;;;;;;7.80;99.90;;;;;;4940545;28;19973;-60
2023/12/30 10:55:02;;;;;;;;;;;7.90;99.90;;;;;;4924879;28;20285;-61
2023/12/30 10:57:30;;;;;;;;;;;7.90;99.90;;;;;;4941080;28;19930;-61
2023/12/30 10:59:57;;;;;;;;;;;7.90;99.90;;;;;;4938374;28;19922;-61
2023/12/30 11:02:23;;;;;;;;;;;7.90;99.90;;;;;;4922740;28;19962;-62
2023/12/30 11:04:49;;;;;;;;;;;8.00;99.90;;;;;;4923860;28;19927;-61
2023/12/30 11:07:16;;;;;;;;;;;8.00;99.90;;;;;;4928863;28;19933;-61
2023/12/30 11:09:42;;;;;;;;;;;8.10;99.90;;;;;;4917092;28;19926;-60
2023/12/30 11:12:09;;;;;;;;;;;8.10;99.90;;;;;;4920895;28;19926;-60
2023/12/30 11:14:35;;;;;;;;;;;8.10;99.90;;;;;;4926389;28;20013;-61
2023/12/30 11:17:01;;;;;;;;;;;8.10;99.90;;;;;;4920465;28;19977;-60
2023/12/30 11:19:27;;;;;;;;;;;8.10;99.90;;;;;;4945916;28;20549;-61
2023/12/30 11:21:54;;;;;;;;;;;8.20;99.90;;;;;;4930122;28;20321;-62
2023/12/30 11:24:20;;;;;;;;;;;8.20;99.90;;;;;;4948121;28;20024;-61
2023/12/30 11:26:47;;;;;;;;;;;8.20;99.90;;;;;;4951410;28;20024;-61
2023/12/30 11:29:17;;;;;;;;;;;8.20;99.90;;;;;;4935992;28;19972;-61
2023/12/30 11:31:47;;;;;;;;;;;8.10;99.90;;;;;;4939188;28;20387;-61
2023/12/30 11:34:15;;;;;;;;;;;8.10;99.90;;;;;;4953491;28;20313;-61
2023/12/30 11:36:41;;;;;;;;;;;8.10;99.90;;;;;;4948212;28;19977;-61
2023/12/30 11:39:09;;;;;;;;;;;8.10;99.90;;;;;;4940500;28;19921;-61
2023/12/30 11:41:35;;;;;;;;;;;8.10;99.90;;;;;;4955030;28;20108;-61
2023/12/30 11:44:02;;;;;;;;;;;8.10;99.90;;;;;;4936143;28;19926;-61
2023/12/30 11:46:28;;;;;;;;;;;8.10;99.90;;;;;;4934632;28;20005;-61
2023/12/30 11:48:54;;;;;;;;;;;8.10;99.90;;;;;;4953053;28;19996;-61
2023/12/30 11:51:27;;;;;;;;;;;8.00;99.90;;;;;;4938436;28;19986;-62
2023/12/30 11:53:53;;;;;;;;;;;8.00;99.90;;;;;;4929770;28;19926;-61
2023/12/30 11:56:22;;;;;;;;;;;8.00;99.90;;;;;;4939199;28;19926;-61
2023/12/30 11:58:48;;;;;;;;;;;8.00;99.90;;;;;;4950970;28;20013;-61
2023/12/30 12:01:14;;;;;;;;;;;8.10;99.90;;;;;;4951108;28;20037;-60
2023/12/30 12:03:40;;;;;;;;;;;8.20;99.90;;;;;;4948339;28;19922;-60
2023/12/30 12:06:07;;;;;;;;;;;8.30;99.90;;;;;;4934951;28;19926;-61
2023/12/30 12:08:33;;;;;;;;;;;8.30;99.90;;;;;;4939396;28;19926;-61
2023/12/30 12:10:58;;;;;;;;;;;8.30;99.90;;;;;;4938846;28;19925;-61
2023/12/30 12:13:24;;;;;;;;;;;8.20;99.90;;;;;;4953289;28;19926;-61
2023/12/30 12:15:50;;;;;;;;;;;8.20;99.90;;;;;;4936595;28;19933;-61
2023/12/30 12:18:16;;;;;;;;;;;8.10;99.90;;;;;;4934391;28;19923;-61
2023/12/30 12:20:43;;;;;;;;;;;8.10;99.90;;;;;;4937014;28;20377;-61
2023/12/30 12:23:12;;;;;;;;;;;8.00;99.90;;;;;;4953190;28;20012;-61
2023/12/30 12:25:38;;;;;;;;;;;8.00;99.90;;;;;;4942373;28;19973;-61
2023/12/30 12:28:11;;;;;;;;;;;7.90;99.90;;;;;;4948002;28;19922;-61
2023/12/30 12:30:36;;;;;;;;;;;7.90;99.90;;;;;;4955726;28;19922;-61
2023/12/30 12:33:02;;;;;;;;;;;7.90;99.90;;;;;;4958624;28;21218;-61
2023/12/30 12:35:30;;;;;;;;;;;7.90;99.90;;;;;;4957241;28;19926;-61
2023/12/30 12:37:55;;;;;;;;;;;7.90;99.90;;;;;;4942558;28;19924;-61
2023/12/30 12:40:21;;;;;;;;;;;7.80;99.90;;;;;;4957124;28;19922;-61
2023/12/30 12:42:46;;;;;;;;;;;7.80;99.90;;;;;;4952198;28;19922;-61
2023/12/30 12:45:12;;;;;;;;;;;7.80;99.90;;;;;;4936503;28;19933;-61
2023/12/30 12:47:38;;;;;;;;;;;7.80;99.90;;;;;;4954850;28;19969;-61
2023/12/30 12:50:04;;;;;;;;;;;7.80;99.90;;;;;;4948531;28;20022;-61
2023/12/30 12:52:30;;;;;;;;;;;7.80;99.90;;;;;;4939653;28;19983;-60
2023/12/30 12:54:55;;;;;;;;;;;7.80;99.90;;;;;;4937462;28;20366;-61
2023/12/30 12:57:21;;;;;;;;;;;7.80;99.90;;;;;;4919379;28;19929;-61
2023/12/30 12:59:46;;;;;;;;;;;7.90;99.90;;;;;;4909677;28;19925;-62
2023/12/30 13:02:12;;;;;;;;;;;7.90;99.90;;;;;;4923948;28;19925;-61
2023/12/30 13:04:39;;;;;;;;;;;7.90;99.90;;;;;;4941124;28;19933;-61
2023/12/30 13:07:06;;;;;;;;;;;7.90;99.90;;;;;;4919020;28;19937;-61
2023/12/30 13:09:36;;;;;;;;;;;7.90;99.90;;;;;;4926079;28;20523;-61
2023/12/30 13:12:02;;;;;;;;;;;7.90;99.90;;;;;;4943283;28;20490;-61
2023/12/30 13:14:28;;;;;;;;;;;7.90;99.90;;;;;;4946308;28;19926;-61
2023/12/30 13:16:54;;;;;;;;;;;8.00;99.90;;;;;;4944834;28;19933;-62
2023/12/30 13:19:20;;;;;;;;;;;8.00;99.90;;;;;;4942174;28;20487;-61
2023/12/30 13:21:48;;;;;;;;;;;8.00;99.90;;;;;;4933633;28;19922;-60
2023/12/30 13:24:14;;;;;;;;;;;8.00;99.90;;;;;;4948775;28;20478;-60
2023/12/30 13:26:40;;;;;;;;;;;8.00;99.90;;;;;;4930145;28;19922;-61
2023/12/30 13:29:06;;;;;;;;;;;8.00;99.90;;;;;;4932972;28;20421;-61
2023/12/30 13:31:35;;;;;;;;;;;8.00;99.90;;;;;;4933281;28;20428;-61
2023/12/30 13:34:01;;;;;;;;;;;8.00;99.90;;;;;;4931833;28;19929;-61
2023/12/30 13:36:29;;;;;;;;;;;8.00;99.90;;;;;;4946249;28;20361;-61
2023/12/30 13:39:05;;;;;;;;;;;8.10;99.90;;;;;;4946284;28;19977;-62
2023/12/30 13:41:31;;;;;;;;;;;8.10;99.90;;;;;;4931100;28;21671;-62
2023/12/30 13:43:58;;;;;;;;;;;8.10;99.90;;;;;;4943019;28;20365;-61
2023/12/30 13:51:37;;;;;;;;;;;8.20;99.90;;;;;;4930011;28;21089;-61
2023/12/30 13:54:03;;;;;;;;;;;8.20;99.90;;;;;;4928467;28;19926;-61
2023/12/30 13:56:32;;;;;;;;;;;8.20;99.90;;;;;;4945425;28;20366;-62
2023/12/30 13:58:57;;;;;;;;;;;8.20;99.90;;;;;;4924518;28;19918;-61
2023/12/30 14:01:24;;;;;;;;;;;8.20;99.90;;;;;;4930782;28;20371;-62
2023/12/30 14:03:55;;;;;;;;;;;8.20;99.90;;;;;;4939596;28;19921;-61
2023/12/30 14:06:28;;;;;;;;;;;8.10;99.90;;;;;;4943633;28;20064;-61
2023/12/30 14:08:54;;;;;;;;;;;8.10;99.90;;;;;;4939890;28;20876;-61
2023/12/30 14:11:33;;;;;;;;;;;8.10;99.90;;;;;;4939310;28;19929;-61
2023/12/30 14:13:59;;;;;;;;;;;8.10;99.90;;;;;;4955557;28;19921;-61
2023/12/30 14:16:25;;;;;;;;;;;8.10;99.90;;;;;;4958851;28;19926;-61
2023/12/30 14:18:51;;;;;;;;;;;8.10;99.90;;;;;;4957861;28;20477;-61
2023/12/30 14:21:17;;;;;;;;;;;8.10;99.90;;;;;;4939342;28;20012;-61
2023/12/30 14:23:43;;;;;;;;;;;8.10;99.90;;;;;;4939623;28;20357;-62
2023/12/30 14:26:09;;;;;;;;;;;8.10;99.90;;;;;;4943565;28;19926;-61
2023/12/30 14:28:34;;;;;;;;;;;8.10;99.90;;;;;;4943368;28;19922;-61
2023/12/30 14:31:00;;;;;;;;;;;8.00;99.90;;;;;;4938107;28;19926;-61